createdAt,value
2023-04-07T00:00:00.110Z,17.97
2023-04-07T00:02:29.299Z,13.30
2023-04-07T00:04:58.559Z,16.27
2023-04-07T00:07:26.483Z,16.10
2023-04-07T00:09:54.161Z,17.10
2023-04-07T00:12:21.929Z,17.90
2023-04-07T00:14:49.653Z,18.97
2023-04-07T00:17:17.404Z,22.23
2023-04-07T00:19:46.568Z,21.73
2023-04-07T00:22:14.375Z,18.93
2023-04-07T00:24:42.314Z,16.13
2023-04-07T00:27:10.092Z,16.40
2023-04-07T00:29:37.827Z,18.67
2023-04-07T00:32:05.826Z,16.97
2023-04-07T00:34:33.595Z,15.20
2023-04-07T00:37:02.683Z,16.37
2023-04-07T00:39:31.400Z,18.17
2023-04-07T00:41:59.165Z,15.90
2023-04-07T00:50:37.779Z,19.40
2023-04-07T00:53:07.620Z,14.80
2023-04-07T00:55:35.379Z,16.97
2023-04-07T00:58:05.014Z,16.10
2023-04-07T01:00:34.012Z,15.63
2023-04-07T01:03:09.175Z,18.30
2023-04-07T01:05:44.071Z,17.30
2023-04-07T01:08:18.747Z,16.33
2023-04-07T01:10:53.066Z,18.40
2023-04-07T01:13:28.104Z,16.20
2023-04-07T01:16:06.588Z,16.77
2023-04-07T01:18:42.143Z,15.77
2023-04-07T01:21:15.111Z,15.53
2023-04-07T01:24:02.345Z,16.70
2023-04-07T01:26:31.744Z,16.43
2023-04-07T01:29:20.422Z,14.47
2023-04-07T01:31:51.203Z,16.60
2023-04-07T01:34:20.735Z,17.27
2023-04-07T01:36:50.911Z,17.13
2023-04-07T01:39:19.674Z,16.13
2023-04-07T01:41:48.224Z,16.43
2023-04-07T01:44:16.936Z,17.10
2023-04-07T01:46:46.613Z,17.50
2023-04-07T01:49:15.988Z,16.30
2023-04-07T01:51:44.329Z,16.20
2023-04-07T01:54:12.215Z,17.03
2023-04-07T01:56:39.932Z,18.53
2023-04-07T01:59:08.181Z,18.13
2023-04-07T02:01:36.096Z,19.93
2023-04-07T02:04:13.743Z,18.50
2023-04-07T02:06:49.087Z,17.07
2023-04-07T02:09:22.414Z,18.93
2023-04-07T02:11:52.639Z,18.33
2023-04-07T02:14:24.350Z,20.77
2023-04-07T02:17:06.777Z,21.67
2023-04-07T02:19:36.164Z,19.33
2023-04-07T02:22:05.077Z,20.60
2023-04-07T02:24:32.788Z,21.40
2023-04-07T02:27:02.137Z,21.43
2023-04-07T02:29:29.965Z,22.77
2023-04-07T02:31:57.700Z,22.30
2023-04-07T02:34:25.700Z,23.80
2023-04-07T02:36:54.965Z,20.23
2023-04-07T02:39:22.739Z,22.90
2023-04-07T02:41:50.455Z,24.10
2023-04-07T02:44:18.141Z,25.57
2023-04-07T02:46:45.987Z,26.27
2023-04-07T02:49:13.739Z,25.00
2023-04-07T02:51:41.471Z,24.77
2023-04-07T02:54:10.729Z,26.80
2023-04-07T02:56:38.491Z,28.33
2023-04-07T02:59:06.445Z,31.43
2023-04-07T03:01:40.446Z,28.70
2023-04-07T03:04:08.899Z,29.80
2023-04-07T03:06:36.696Z,30.60
2023-04-07T03:09:11.720Z,31.50
2023-04-07T03:11:41.561Z,29.80
2023-04-07T03:14:09.791Z,30.87
2023-04-07T03:16:45.146Z,35.60
2023-04-07T03:19:14.642Z,31.67
2023-04-07T03:21:48.435Z,33.87
2023-04-07T03:24:18.358Z,33.63
2023-04-07T03:26:47.359Z,33.83
2023-04-07T03:29:41.381Z,31.67
2023-04-07T03:32:12.221Z,33.43
2023-04-07T03:34:40.546Z,37.10
2023-04-07T03:37:08.278Z,35.80
2023-04-07T03:39:41.055Z,35.63
2023-04-07T03:42:23.294Z,33.07
2023-04-07T03:44:54.710Z,37.37
2023-04-07T03:47:22.750Z,37.30
2023-04-07T03:49:56.251Z,37.70
2023-04-07T03:52:24.393Z,35.00
2023-04-07T03:54:58.295Z,37.80
2023-04-07T03:57:31.271Z,30.37
2023-04-07T03:59:59.093Z,33.93
2023-04-07T04:02:26.967Z,28.47
2023-04-07T04:04:57.506Z,27.40
2023-04-07T04:07:26.299Z,31.93
2023-04-07T04:09:56.130Z,26.17
2023-04-07T04:12:25.414Z,24.67
2023-04-07T04:15:09.146Z,28.23
2023-04-07T04:17:37.694Z,27.47
2023-04-07T04:20:07.985Z,26.37
2023-04-07T04:22:43.342Z,26.87
2023-04-07T04:25:11.333Z,28.37
2023-04-07T04:27:41.349Z,29.37
2023-04-07T04:30:18.585Z,26.20
2023-04-07T04:32:51.790Z,24.77
2023-04-07T04:35:26.026Z,25.53
2023-04-07T04:38:05.068Z,26.37
2023-04-07T04:40:33.444Z,30.60
2023-04-07T04:43:06.866Z,26.80
2023-04-07T04:45:36.824Z,30.30
2023-04-07T04:48:06.327Z,28.00
2023-04-07T04:50:34.264Z,29.27
2023-04-07T04:53:06.242Z,31.03
2023-04-07T04:55:34.042Z,29.00
2023-04-07T04:58:03.491Z,28.57
2023-04-07T05:00:45.587Z,24.93
2023-04-07T05:03:13.832Z,25.27
2023-04-07T05:05:48.524Z,26.57
2023-04-07T05:08:18.690Z,23.63
2023-04-07T05:10:47.817Z,26.63
2023-04-07T05:13:20.072Z,22.47
2023-04-07T05:15:48.060Z,23.80
2023-04-07T05:18:16.018Z,27.50
2023-04-07T05:20:44.102Z,28.10
2023-04-07T05:23:13.364Z,24.57
2023-04-07T05:25:41.906Z,26.37
2023-04-07T05:28:10.000Z,22.40
2023-04-07T05:30:40.423Z,22.43
2023-04-07T05:33:08.360Z,21.23
2023-04-07T05:35:49.639Z,20.47
2023-04-07T05:38:17.858Z,19.33
2023-04-07T05:40:48.223Z,18.20
2023-04-07T05:43:23.071Z,20.70
2023-04-07T05:45:53.628Z,23.13
2023-04-07T05:48:22.606Z,17.57
2023-04-07T05:50:51.321Z,18.40
2023-04-07T05:53:20.926Z,18.80
2023-04-07T05:55:48.726Z,15.70
2023-04-07T05:58:42.475Z,18.07
2023-04-07T06:01:12.732Z,16.73
2023-04-07T06:03:41.282Z,18.17
2023-04-07T06:06:21.985Z,16.37
2023-04-07T06:08:49.834Z,20.43
2023-04-07T06:11:17.708Z,17.53
2023-04-07T06:13:45.486Z,15.03
2023-04-07T06:16:14.973Z,14.97
2023-04-07T06:18:43.311Z,17.47
2023-04-07T06:21:11.148Z,14.07
2023-04-07T06:23:39.181Z,15.90
2023-04-07T06:26:11.178Z,14.53
2023-04-07T06:28:39.022Z,13.40
2023-04-07T06:31:07.384Z,16.17
2023-04-07T06:33:37.599Z,15.80
2023-04-07T06:36:05.718Z,13.40
2023-04-07T06:38:33.712Z,13.60
2023-04-07T06:41:01.460Z,13.23
2023-04-07T06:43:29.279Z,14.30
2023-04-07T06:46:02.559Z,13.67
2023-04-07T06:48:30.380Z,17.43
2023-04-07T06:50:59.478Z,14.13
2023-04-07T06:53:27.213Z,13.57
2023-04-07T06:56:04.319Z,13.50
2023-04-07T06:58:32.106Z,14.37
2023-04-07T07:00:59.915Z,12.10
2023-04-07T07:03:27.984Z,14.30
2023-04-07T07:05:57.416Z,12.20
2023-04-07T07:08:27.210Z,11.83
2023-04-07T07:10:55.295Z,15.67
2023-04-07T07:13:25.017Z,10.63
2023-04-07T07:15:53.166Z,13.13
2023-04-07T07:18:24.504Z,10.23
2023-04-07T07:20:52.352Z,11.47
2023-04-07T07:23:20.387Z,10.33
2023-04-07T07:25:50.054Z,11.03
2023-04-07T07:28:18.416Z,11.00
2023-04-07T07:30:46.222Z,8.73
2023-04-07T07:33:14.152Z,10.50
2023-04-07T07:35:42.245Z,10.23
2023-04-07T07:38:09.985Z,10.90
2023-04-07T07:40:40.155Z,11.43
2023-04-07T07:43:09.285Z,10.37
2023-04-07T07:45:37.035Z,10.17
2023-04-07T07:48:04.881Z,10.53
2023-04-07T07:50:32.821Z,9.70
2023-04-07T07:53:00.731Z,12.10
2023-04-07T07:55:30.602Z,10.23
2023-04-07T07:57:58.517Z,10.90
2023-04-07T08:00:28.504Z,13.23
2023-04-07T08:02:56.429Z,10.63
2023-04-07T08:05:24.421Z,13.40
2023-04-07T08:07:54.603Z,12.60
2023-04-07T08:10:24.811Z,14.30
2023-04-07T08:12:52.904Z,15.23
2023-04-07T08:15:20.800Z,11.73
2023-04-07T08:17:49.970Z,13.13
2023-04-07T08:20:17.759Z,12.93
2023-04-07T08:22:45.624Z,14.90
2023-04-07T08:25:13.468Z,12.47
2023-04-07T08:27:41.193Z,12.00
2023-04-07T08:30:09.432Z,11.37
2023-04-07T08:32:37.795Z,13.60
2023-04-07T08:35:07.760Z,14.13
2023-04-07T08:37:35.964Z,13.07
2023-04-07T08:40:04.802Z,12.50
2023-04-07T08:42:34.663Z,12.87
2023-04-07T08:45:05.051Z,12.57
2023-04-07T08:47:34.699Z,13.77
2023-04-07T08:50:04.680Z,13.90
2023-04-07T08:52:41.236Z,14.87
2023-04-07T08:55:10.814Z,15.67
2023-04-07T08:57:39.063Z,13.50
2023-04-07T09:00:08.185Z,13.13
2023-04-07T09:02:37.695Z,14.33
2023-04-07T09:05:07.979Z,15.17
2023-04-07T09:07:41.308Z,18.03
2023-04-07T09:10:10.040Z,14.50
2023-04-07T09:12:38.342Z,15.00
2023-04-07T09:15:08.710Z,15.63
2023-04-07T09:17:36.823Z,16.77
2023-04-07T09:20:05.535Z,16.20
2023-04-07T09:22:39.111Z,14.97
2023-04-07T09:25:15.587Z,14.63
2023-04-07T09:27:55.337Z,15.67
2023-04-07T09:30:23.755Z,15.00
2023-04-07T09:32:51.679Z,15.80
2023-04-07T09:35:19.694Z,14.27
2023-04-07T09:38:02.486Z,16.90
2023-04-07T09:40:30.568Z,11.53
2023-04-07T09:42:59.370Z,12.70
2023-04-07T09:45:34.569Z,12.90
2023-04-07T09:48:07.710Z,14.53
2023-04-07T09:50:36.918Z,13.43
2023-04-07T09:53:06.146Z,12.27
2023-04-07T09:55:34.994Z,10.37
2023-04-07T09:58:03.249Z,12.87
2023-04-07T10:00:31.174Z,13.80
2023-04-07T10:02:59.256Z,10.27
2023-04-07T10:05:28.669Z,14.67
2023-04-07T10:07:57.092Z,12.80
2023-04-07T10:10:28.765Z,13.67
2023-04-07T10:12:59.002Z,14.00
2023-04-07T10:15:26.839Z,12.33
2023-04-07T10:17:56.904Z,13.57
2023-04-07T10:20:25.490Z,13.10
2023-04-07T10:22:54.762Z,14.97
2023-04-07T10:25:25.504Z,16.77
2023-04-07T10:28:00.389Z,16.67
2023-04-07T10:30:31.639Z,18.70
2023-04-07T10:32:59.968Z,17.80
2023-04-07T10:35:28.434Z,21.13
2023-04-07T10:38:14.933Z,19.50
2023-04-07T10:40:43.736Z,15.90
2023-04-07T10:43:13.743Z,21.67
2023-04-07T10:45:59.690Z,19.87
2023-04-07T10:48:32.920Z,17.90
2023-04-07T10:51:15.445Z,18.13
2023-04-07T10:54:20.566Z,19.77
2023-04-07T10:57:13.342Z,23.20
2023-04-07T11:00:20.456Z,17.10
2023-04-07T11:02:48.522Z,15.83
2023-04-07T11:05:23.842Z,17.20
2023-04-07T11:07:55.489Z,20.73
2023-04-07T11:10:23.417Z,19.40
2023-04-07T11:13:06.154Z,18.97
2023-04-07T11:15:38.614Z,14.60
2023-04-07T11:18:18.922Z,19.33
2023-04-07T11:20:49.105Z,18.57
2023-04-07T11:23:18.328Z,16.37
2023-04-07T11:25:47.557Z,17.73
2023-04-07T11:28:15.928Z,17.87
2023-04-07T11:30:51.736Z,18.57
2023-04-07T11:33:22.173Z,18.77
2023-04-07T11:35:51.965Z,18.33
2023-04-07T11:38:21.027Z,19.17
2023-04-07T11:40:48.845Z,17.63
2023-04-07T11:43:17.932Z,16.97
2023-04-07T11:45:45.964Z,16.87
2023-04-07T11:48:28.837Z,16.83
2023-04-07T11:50:56.839Z,14.73
2023-04-07T11:53:28.808Z,17.77
2023-04-07T11:56:09.510Z,18.87
2023-04-07T11:58:38.693Z,17.83
2023-04-07T12:01:09.085Z,17.73
2023-04-07T12:03:39.348Z,21.23
2023-04-07T12:06:07.621Z,22.23
2023-04-07T12:08:39.803Z,19.23
2023-04-07T12:11:08.049Z,17.30
2023-04-07T12:13:36.099Z,18.20
2023-04-07T12:16:04.332Z,15.50
2023-04-07T12:18:32.508Z,19.20
2023-04-07T12:21:01.957Z,17.93
2023-04-07T12:23:29.785Z,18.33
2023-04-07T12:25:57.514Z,16.50
2023-04-07T12:28:25.325Z,18.00
2023-04-07T12:30:53.163Z,14.33
2023-04-07T12:33:21.292Z,14.50
2023-04-07T12:35:49.194Z,14.73
2023-04-07T12:38:18.413Z,14.10
2023-04-07T12:40:46.340Z,16.17
2023-04-07T12:43:14.079Z,14.03
2023-04-07T12:45:41.932Z,12.67
2023-04-07T12:48:09.743Z,12.50
2023-04-07T12:50:37.862Z,14.27
2023-04-07T12:53:05.925Z,15.03
2023-04-07T12:55:35.682Z,13.73
2023-04-07T12:58:03.404Z,17.63
2023-04-07T13:00:31.571Z,14.13
2023-04-07T13:02:59.541Z,14.10
2023-04-07T13:05:27.444Z,15.10
2023-04-07T13:07:55.883Z,15.47
2023-04-07T13:10:24.073Z,18.43
2023-04-07T13:12:53.277Z,15.23
2023-04-07T13:15:24.611Z,13.53
2023-04-07T13:17:52.407Z,11.23
2023-04-07T13:20:20.982Z,13.00
2023-04-07T13:22:57.648Z,13.97
2023-04-07T13:25:33.898Z,12.33
2023-04-07T13:28:03.036Z,11.73
2023-04-07T13:30:30.952Z,13.17
2023-04-07T13:32:58.959Z,15.10
2023-04-07T13:35:26.920Z,14.03
2023-04-07T13:37:55.396Z,15.97
2023-04-07T13:40:23.596Z,15.60
2023-04-07T13:42:51.384Z,14.67
2023-04-07T13:45:20.625Z,17.70
2023-04-07T13:47:48.395Z,14.27
2023-04-07T13:50:16.300Z,12.93
2023-04-07T13:52:44.172Z,13.73
2023-04-07T13:55:11.886Z,12.40
2023-04-07T13:57:39.671Z,12.57
2023-04-07T14:00:09.119Z,13.77
2023-04-07T14:02:38.517Z,11.90
2023-04-07T14:05:07.058Z,13.53
2023-04-07T14:07:34.809Z,13.90
2023-04-07T14:10:02.547Z,14.30
2023-04-07T14:12:30.242Z,14.93
2023-04-07T14:14:58.011Z,13.50
2023-04-07T14:17:25.994Z,14.80
2023-04-07T14:19:55.295Z,13.00
2023-04-07T14:22:23.160Z,13.27
2023-04-07T14:24:51.471Z,12.37
2023-04-07T14:27:20.989Z,13.13
2023-04-07T14:29:49.133Z,11.67
2023-04-07T14:32:17.888Z,14.33
2023-04-07T14:34:48.009Z,14.37
2023-04-07T14:37:20.054Z,15.73
2023-04-07T14:40:01.396Z,14.73
2023-04-07T14:42:32.776Z,11.07
2023-04-07T14:45:01.821Z,12.27
2023-04-07T14:47:30.060Z,12.40
2023-04-07T14:50:00.202Z,13.87
2023-04-07T14:52:29.939Z,13.93
2023-04-07T14:55:00.064Z,15.73
2023-04-07T14:57:28.166Z,12.27
2023-04-07T14:59:55.995Z,11.07
2023-04-07T15:02:23.923Z,13.37
2023-04-07T15:04:51.765Z,13.80
2023-04-07T15:07:19.601Z,14.77
2023-04-07T15:09:49.388Z,13.43
2023-04-07T15:12:17.530Z,14.67
2023-04-07T15:14:45.908Z,14.70
2023-04-07T15:17:23.651Z,16.77
2023-04-07T15:19:58.271Z,15.00
2023-04-07T15:22:26.417Z,16.87
2023-04-07T15:24:55.647Z,17.00
2023-04-07T15:27:26.675Z,20.33
2023-04-07T15:29:54.392Z,29.20
2023-04-07T15:32:22.096Z,27.83
2023-04-07T15:34:50.637Z,18.10
2023-04-07T15:37:19.293Z,17.00
2023-04-07T15:39:47.144Z,16.87
2023-04-07T15:42:16.307Z,16.40
2023-04-07T15:44:44.522Z,18.27
2023-04-07T15:47:12.512Z,19.07
2023-04-07T15:49:41.358Z,16.73
2023-04-07T15:52:09.355Z,17.93
2023-04-07T15:54:37.130Z,13.93
2023-04-07T15:57:04.894Z,16.67
2023-04-07T15:59:36.034Z,15.10
2023-04-07T16:02:04.024Z,15.23
2023-04-07T16:04:31.965Z,16.03
2023-04-07T16:06:59.662Z,18.13
2023-04-07T16:09:28.571Z,17.97
2023-04-07T16:11:56.320Z,15.43
2023-04-07T16:14:24.192Z,10.60
2023-04-07T16:16:58.507Z,15.37
2023-04-07T16:19:27.114Z,11.17
2023-04-07T16:21:55.860Z,16.00
2023-04-07T16:24:23.755Z,14.13
2023-04-07T16:26:52.407Z,13.07
2023-04-07T16:29:20.961Z,13.80
2023-04-07T16:31:48.867Z,16.27
2023-04-07T16:34:18.028Z,13.27
2023-04-07T16:36:45.902Z,9.97
2023-04-07T16:39:13.664Z,14.67
2023-04-07T16:41:41.449Z,11.00
2023-04-07T16:44:09.176Z,10.70
2023-04-07T16:46:37.486Z,13.07
2023-04-07T16:49:05.525Z,12.87
2023-04-07T16:51:34.643Z,14.47
2023-04-07T16:54:02.360Z,11.87
2023-04-07T16:56:30.112Z,15.77
2023-04-07T16:58:57.901Z,12.30
2023-04-07T17:01:25.732Z,13.73
2023-04-07T17:03:53.722Z,12.03
2023-04-07T17:06:21.963Z,12.20
2023-04-07T17:08:51.089Z,10.97
2023-04-07T17:11:18.781Z,10.77
2023-04-07T17:13:47.800Z,14.97
2023-04-07T17:16:15.920Z,15.87
2023-04-07T17:18:43.812Z,14.00
2023-04-07T17:21:11.685Z,13.37
2023-04-07T17:23:39.444Z,14.97
2023-04-07T17:26:08.547Z,14.83
2023-04-07T17:28:36.233Z,13.23
2023-04-07T17:31:03.979Z,11.50
2023-04-07T17:33:31.765Z,14.30
2023-04-07T17:36:02.044Z,13.60
2023-04-07T17:38:29.837Z,14.87
2023-04-07T17:40:59.122Z,14.83
2023-04-07T17:43:28.556Z,13.90
2023-04-07T17:45:56.449Z,16.33
2023-04-07T17:48:24.542Z,15.23
2023-04-07T17:50:52.403Z,13.93
2023-04-07T17:53:20.569Z,15.10
2023-04-07T17:55:48.348Z,14.40
2023-04-07T17:58:16.105Z,13.07
2023-04-07T18:00:45.323Z,12.43
2023-04-07T18:03:14.497Z,13.00
2023-04-07T18:05:44.902Z,15.30
2023-04-07T18:08:12.845Z,15.63
2023-04-07T18:10:40.902Z,14.90
2023-04-07T18:13:08.673Z,17.80
2023-04-07T18:15:36.622Z,17.00
2023-04-07T18:18:06.036Z,19.63
2023-04-07T18:20:33.830Z,18.30
2023-04-07T18:23:02.168Z,18.60
2023-04-07T18:25:30.224Z,21.67
2023-04-07T18:27:58.788Z,20.47
2023-04-07T18:30:27.262Z,22.83
2023-04-07T18:32:55.272Z,21.60
2023-04-07T18:35:25.420Z,20.23
2023-04-07T18:37:53.705Z,23.00
2023-04-07T18:40:21.770Z,22.77
2023-04-07T18:42:49.722Z,22.33
2023-04-07T18:45:17.666Z,22.87
2023-04-07T18:47:45.505Z,27.50
2023-04-07T18:50:13.324Z,27.57
2023-04-07T18:52:42.907Z,22.83
2023-04-07T18:55:11.256Z,25.07
2023-04-07T18:57:39.324Z,28.60
2023-04-07T19:00:08.714Z,30.37
2023-04-07T19:02:38.701Z,26.17
2023-04-07T19:05:06.923Z,26.73
2023-04-07T19:07:34.846Z,26.87
2023-04-07T19:10:04.226Z,26.67
2023-04-07T19:12:31.944Z,25.37
2023-04-07T19:14:59.757Z,23.03
2023-04-07T19:17:27.967Z,25.70
2023-04-07T19:19:55.870Z,29.97
2023-04-07T19:22:23.597Z,27.53
2023-04-07T19:24:51.720Z,23.10
2023-04-07T19:27:20.850Z,27.67
2023-04-07T19:29:48.697Z,31.03
2023-04-07T19:32:16.490Z,26.63
2023-04-07T19:34:44.422Z,22.30
2023-04-07T19:37:12.217Z,22.23
2023-04-07T19:39:40.282Z,21.30
2023-04-07T19:42:09.258Z,17.43
2023-04-07T19:44:38.388Z,20.50
2023-04-07T19:47:06.982Z,22.33
2023-04-07T19:49:34.732Z,17.47
2023-04-07T19:52:02.569Z,19.90
2023-04-07T19:54:30.361Z,21.60
2023-04-07T19:56:58.200Z,17.73
2023-04-07T19:59:25.945Z,21.27
2023-04-07T20:01:55.486Z,18.27
2023-04-07T20:04:23.312Z,15.57
2023-04-07T20:06:51.113Z,20.70
2023-04-07T20:09:20.469Z,21.07
2023-04-07T20:11:48.219Z,20.87
2023-04-07T20:14:16.041Z,21.67
2023-04-07T20:16:43.881Z,21.90
2023-04-07T20:19:13.172Z,21.23
2023-04-07T20:21:41.529Z,18.03
2023-04-07T20:24:09.431Z,25.07
2023-04-07T20:26:37.228Z,18.70
2023-04-07T20:29:05.014Z,20.33
2023-04-07T20:31:32.868Z,21.40
2023-04-07T20:34:00.683Z,20.40
2023-04-07T20:36:29.976Z,24.37
2023-04-07T20:38:58.617Z,21.93
2023-04-07T20:41:26.631Z,21.20
2023-04-07T20:43:55.013Z,19.63
2023-04-07T20:46:23.209Z,22.80
2023-04-07T20:48:51.150Z,23.73
2023-04-07T20:51:19.138Z,21.70
2023-04-07T20:53:48.313Z,25.67
2023-04-07T20:56:16.375Z,21.10
2023-04-07T20:58:44.207Z,24.30
2023-04-07T21:01:12.040Z,29.50
2023-04-07T21:03:40.008Z,21.97
2023-04-07T21:06:08.634Z,28.23
2023-04-07T21:08:36.452Z,21.27
2023-04-07T21:11:05.686Z,26.60
2023-04-07T21:13:33.466Z,24.83
2023-04-07T21:16:03.225Z,19.93
2023-04-07T21:18:31.093Z,30.77
2023-04-07T21:21:01.946Z,21.63
2023-04-07T21:23:31.240Z,24.87
2023-04-07T21:26:02.644Z,25.27
2023-04-07T21:28:31.775Z,22.20
2023-04-07T21:30:59.683Z,23.90
2023-04-07T21:33:27.758Z,23.47
2023-04-07T21:35:56.173Z,27.73
2023-04-07T21:38:23.937Z,28.10
2023-04-07T21:40:51.701Z,25.10
2023-04-07T21:43:19.627Z,24.77
2023-04-07T21:45:48.681Z,24.07
2023-04-07T21:48:20.729Z,23.67
2023-04-07T21:50:48.430Z,27.00
2023-04-07T21:53:16.199Z,22.47
2023-04-07T21:55:44.036Z,27.77
2023-04-07T21:58:11.949Z,27.37
2023-04-07T22:00:39.700Z,30.43
2023-04-07T22:03:09.153Z,26.07
2023-04-07T22:05:37.073Z,25.70
2023-04-07T22:08:04.790Z,26.67
2023-04-07T22:10:32.636Z,26.13
2023-04-07T22:13:00.366Z,27.63
2023-04-07T22:15:28.082Z,25.47
2023-04-07T22:17:56.735Z,26.63
2023-04-07T22:20:27.135Z,26.77
2023-04-07T22:22:57.452Z,25.60
2023-04-07T22:25:26.009Z,24.23
2023-04-07T22:27:53.936Z,26.17
2023-04-07T22:30:24.325Z,25.37
2023-04-07T22:32:52.399Z,28.30
2023-04-07T22:35:20.359Z,27.97
2023-04-07T22:37:49.507Z,22.83
2023-04-07T22:40:17.492Z,27.03
2023-04-07T22:42:45.349Z,28.67
2023-04-07T22:45:13.029Z,30.63
2023-04-07T22:47:40.794Z,25.63
2023-04-07T22:50:09.166Z,25.33
2023-04-07T22:52:36.952Z,28.20
2023-04-07T22:55:07.170Z,25.90
2023-04-07T22:57:34.987Z,31.00
2023-04-07T23:00:02.731Z,27.43
2023-04-07T23:02:30.554Z,27.33
2023-04-07T23:04:58.379Z,26.17
2023-04-07T23:07:26.183Z,26.50
2023-04-07T23:09:53.924Z,24.83
2023-04-07T23:12:22.972Z,22.00
2023-04-07T23:14:50.696Z,26.73
2023-04-07T23:17:18.453Z,26.47
2023-04-07T23:19:46.787Z,25.60
2023-04-07T23:22:14.528Z,27.30
2023-04-07T23:24:42.681Z,24.83
2023-04-07T23:27:10.439Z,27.00
2023-04-07T23:29:39.540Z,27.30
2023-04-07T23:32:07.606Z,27.10
2023-04-07T23:34:35.543Z,23.53
2023-04-07T23:37:03.325Z,25.70
2023-04-07T23:39:31.274Z,32.50
2023-04-07T23:41:59.044Z,33.30
2023-04-07T23:44:26.838Z,29.30
2023-04-07T23:46:56.254Z,29.80
2023-04-07T23:49:24.015Z,27.43
2023-04-07T23:51:52.331Z,26.47
2023-04-07T23:54:20.122Z,30.20
2023-04-07T23:56:47.932Z,32.60
2023-04-07T23:59:15.680Z,29.23
